Time;durP1;ratioP1;P1;durP2;ratioP2;P2;SDS_P1;SDS_P2;PMS_P1;PMS_P2;Temp;Humidity;BMP_temperature;BMP_pressure;BME280_temperature;BME280_humidity;BME280_pressure;Samples;Min_cycle;Max_cycle;Signal;HPM_P1;HPM_P2
2023/09/11 00:01:32;;;;;;;;;;;24.00;62.80;;;;;;5112527;27;19924;-60
2023/09/11 00:03:59;;;;;;;;;;;24.00;62.80;;;;;;5096516;28;19924;-63
2023/09/11 00:06:26;;;;;;;;;;;24.00;62.80;;;;;;5073715;28;19931;-60
2023/09/11 00:08:52;;;;;;;;;;;24.00;62.80;;;;;;5082005;28;19924;-60
2023/09/11 00:11:19;;;;;;;;;;;24.00;62.70;;;;;;5089998;28;19935;-61
2023/09/11 00:13:47;;;;;;;;;;;24.00;62.60;;;;;;5096232;28;19924;-59
2023/09/11 00:16:14;;;;;;;;;;;24.00;62.60;;;;;;5094629;28;19931;-63
2023/09/11 00:18:41;;;;;;;;;;;24.00;62.60;;;;;;5082378;28;19929;-60
2023/09/11 00:21:08;;;;;;;;;;;24.00;62.60;;;;;;5090340;28;19929;-59
2023/09/11 00:23:34;;;;;;;;;;;24.00;62.50;;;;;;5121544;27;19924;-59
2023/09/11 00:26:01;;;;;;;;;;;23.90;62.40;;;;;;5118421;27;19932;-62
2023/09/11 00:28:28;;;;;;;;;;;24.00;62.50;;;;;;5089178;28;19936;-62
2023/09/11 00:31:00;;;;;;;;;;;23.90;62.40;;;;;;5085246;28;19928;-60
2023/09/11 00:33:27;;;;;;;;;;;24.00;62.50;;;;;;5081239;28;19928;-60
2023/09/11 00:35:53;;;;;;;;;;;24.00;62.50;;;;;;5089996;28;19932;-62
2023/09/11 00:38:20;;;;;;;;;;;23.90;62.30;;;;;;5089798;28;19946;-59
2023/09/11 00:40:47;;;;;;;;;;;23.90;62.30;;;;;;5089518;28;20222;-60
2023/09/11 00:43:14;;;;;;;;;;;24.00;62.30;;;;;;5089570;28;19924;-62
2023/09/11 00:45:41;;;;;;;;;;;24.00;62.30;;;;;;5096499;28;19964;-59
2023/09/11 00:48:09;;;;;;;;;;;23.90;62.20;;;;;;5125560;27;19945;-63
2023/09/11 00:50:36;;;;;;;;;;;24.00;62.30;;;;;;5120240;27;19924;-60
2023/09/11 00:53:02;;;;;;;;;;;23.90;62.20;;;;;;5118364;27;19927;-59
2023/09/11 00:55:29;;;;;;;;;;;23.90;62.10;;;;;;5095243;28;20253;-59
2023/09/11 00:57:56;;;;;;;;;;;23.90;62.10;;;;;;5126396;27;19923;-59
2023/09/11 01:00:23;;;;;;;;;;;23.90;62.10;;;;;;5089658;28;19977;-60
2023/09/11 01:02:49;;;;;;;;;;;23.90;62.10;;;;;;5123115;27;19925;-60
2023/09/11 01:05:18;;;;;;;;;;;23.90;62.10;;;;;;5116975;27;19924;-59
2023/09/11 01:07:45;;;;;;;;;;;23.90;62.00;;;;;;5111440;27;19924;-59
2023/09/11 01:10:11;;;;;;;;;;;23.90;62.00;;;;;;5090639;28;19928;-60
2023/09/11 01:12:38;;;;;;;;;;;23.90;62.00;;;;;;5097776;28;19928;-61
2023/09/11 01:15:05;;;;;;;;;;;23.90;62.00;;;;;;5098030;28;19977;-61
2023/09/11 01:17:33;;;;;;;;;;;23.90;61.90;;;;;;5104623;28;19931;-63
2023/09/11 01:20:09;;;;;;;;;;;23.90;61.90;;;;;;5097912;28;19924;-61
2023/09/11 01:22:45;;;;;;;;;;;23.90;61.90;;;;;;5103577;28;19924;-60
2023/09/11 01:25:30;;;;;;;;;;;23.90;61.80;;;;;;5116460;27;19928;-61
2023/09/11 01:28:17;;;;;;;;;;;23.90;61.80;;;;;;5058404;28;19928;-61
2023/09/11 01:30:46;;;;;;;;;;;23.90;61.80;;;;;;5088097;28;19973;-60
2023/09/11 01:33:12;;;;;;;;;;;23.90;61.70;;;;;;5104812;28;19985;-60
2023/09/11 01:35:39;;;;;;;;;;;23.90;61.80;;;;;;5103504;28;19923;-59
2023/09/11 01:38:06;;;;;;;;;;;23.80;61.60;;;;;;5083618;28;20201;-60
2023/09/11 01:40:33;;;;;;;;;;;23.90;61.70;;;;;;5089506;28;19924;-59
2023/09/11 01:43:00;;;;;;;;;;;23.90;61.70;;;;;;5105721;28;19958;-62
2023/09/11 01:45:27;;;;;;;;;;;23.80;61.60;;;;;;5100653;28;19927;-64
2023/09/11 01:47:55;;;;;;;;;;;23.90;61.70;;;;;;5100350;28;19928;-60
2023/09/11 01:50:22;;;;;;;;;;;23.90;61.70;;;;;;5120794;28;19953;-61
2023/09/11 01:52:49;;;;;;;;;;;23.90;61.60;;;;;;5094774;28;19938;-59
2023/09/11 01:55:16;;;;;;;;;;;23.80;61.50;;;;;;5089588;28;19928;-62
2023/09/11 01:57:43;;;;;;;;;;;23.90;61.60;;;;;;5105437;28;20302;-60
2023/09/11 02:00:11;;;;;;;;;;;23.90;61.60;;;;;;5098655;28;19924;-59
2023/09/11 02:02:38;;;;;;;;;;;23.90;61.60;;;;;;5111684;28;19928;-62
2023/09/11 02:05:07;;;;;;;;;;;23.90;62.30;;;;;;5088713;28;19936;-59
2023/09/11 02:07:34;;;;;;;;;;;23.90;61.50;;;;;;5088462;28;19939;-62
2023/09/11 02:10:01;;;;;;;;;;;23.80;61.30;;;;;;5097428;28;19924;-60
2023/09/11 02:12:27;;;;;;;;;;;23.80;61.30;;;;;;5104660;28;19928;-60
2023/09/11 02:14:55;;;;;;;;;;;23.80;61.30;;;;;;5094205;28;19981;-60
2023/09/11 02:17:22;;;;;;;;;;;23.90;61.30;;;;;;5108373;28;19924;-60
2023/09/11 02:19:49;;;;;;;;;;;23.90;61.30;;;;;;5113743;27;19928;-61
2023/09/11 02:22:17;;;;;;;;;;;23.90;61.30;;;;;;5113542;28;19985;-59
2023/09/11 02:24:43;;;;;;;;;;;23.80;61.10;;;;;;5105345;28;19953;-59
2023/09/11 02:27:10;;;;;;;;;;;23.90;61.20;;;;;;5094330;28;19931;-59
2023/09/11 02:29:37;;;;;;;;;;;23.80;61.00;;;;;;5110666;28;19927;-60
2023/09/11 02:32:04;;;;;;;;;;;23.80;61.10;;;;;;5112881;27;19939;-60
2023/09/11 02:34:31;;;;;;;;;;;23.80;61.00;;;;;;5094017;28;19925;-61
2023/09/11 02:36:57;;;;;;;;;;;23.80;61.00;;;;;;5109331;28;20019;-60
2023/09/11 02:39:26;;;;;;;;;;;23.80;61.00;;;;;;5100614;28;19935;-62
2023/09/11 02:41:52;;;;;;;;;;;23.80;60.90;;;;;;5091892;28;19930;-59
2023/09/11 02:44:19;;;;;;;;;;;23.80;60.90;;;;;;5094722;28;19940;-61
2023/09/11 02:46:46;;;;;;;;;;;23.80;60.90;;;;;;5103400;28;19924;-60
2023/09/11 02:49:13;;;;;;;;;;;23.80;60.90;;;;;;5100457;28;19935;-59
2023/09/11 02:51:39;;;;;;;;;;;23.80;60.90;;;;;;5092638;28;19932;-60
2023/09/11 02:54:06;;;;;;;;;;;23.80;60.90;;;;;;5090896;28;19969;-63
2023/09/11 02:56:37;;;;;;;;;;;23.80;60.80;;;;;;5099760;28;19924;-61
2023/09/11 02:59:04;;;;;;;;;;;23.80;60.80;;;;;;5092014;28;20030;-62
2023/09/11 03:01:31;;;;;;;;;;;23.80;60.70;;;;;;5104746;28;19973;-62
2023/09/11 03:03:58;;;;;;;;;;;23.80;60.70;;;;;;5121191;27;19935;-59
2023/09/11 03:06:24;;;;;;;;;;;23.80;60.70;;;;;;5092210;28;19981;-61
2023/09/11 03:08:51;;;;;;;;;;;23.80;60.70;;;;;;5116644;27;19927;-61
2023/09/11 03:11:18;;;;;;;;;;;23.80;60.70;;;;;;5104114;28;19924;-61
2023/09/11 03:13:47;;;;;;;;;;;23.80;60.70;;;;;;5111922;28;19924;-61
2023/09/11 03:16:14;;;;;;;;;;;23.80;60.60;;;;;;5112219;27;19928;-60
2023/09/11 03:18:41;;;;;;;;;;;23.80;60.60;;;;;;5097964;28;19931;-59
2023/09/11 03:21:08;;;;;;;;;;;23.80;60.60;;;;;;5092562;28;19931;-60
2023/09/11 03:23:35;;;;;;;;;;;23.80;60.60;;;;;;5104345;28;19929;-60
2023/09/11 03:26:01;;;;;;;;;;;23.80;60.60;;;;;;5104394;28;19924;-61
2023/09/11 03:28:29;;;;;;;;;;;23.80;60.50;;;;;;5100278;28;19924;-60
2023/09/11 03:30:57;;;;;;;;;;;23.70;60.40;;;;;;5092188;28;19970;-62
2023/09/11 03:33:23;;;;;;;;;;;23.70;60.30;;;;;;5103338;28;19984;-61
2023/09/11 03:35:50;;;;;;;;;;;23.80;60.40;;;;;;5114201;27;19978;-59
2023/09/11 03:38:17;;;;;;;;;;;23.80;60.40;;;;;;5127742;27;19946;-59
2023/09/11 03:40:44;;;;;;;;;;;23.80;60.30;;;;;;5096605;28;19924;-60
2023/09/11 03:43:11;;;;;;;;;;;23.80;60.30;;;;;;5092529;28;19938;-60
2023/09/11 03:45:37;;;;;;;;;;;23.80;60.30;;;;;;5093922;28;19928;-61
2023/09/11 03:48:05;;;;;;;;;;;23.70;60.20;;;;;;5108305;28;19928;-61
2023/09/11 03:50:32;;;;;;;;;;;23.80;60.30;;;;;;5090899;28;19924;-60
2023/09/11 03:52:59;;;;;;;;;;;23.70;60.10;;;;;;5100616;28;19924;-60
2023/09/11 03:55:26;;;;;;;;;;;23.80;60.10;;;;;;5103935;28;19939;-62
2023/09/11 03:57:52;;;;;;;;;;;23.70;60.00;;;;;;5113134;28;19955;-59
2023/09/11 04:00:19;;;;;;;;;;;23.80;60.10;;;;;;5092286;28;19940;-60
2023/09/11 04:02:46;;;;;;;;;;;23.70;60.00;;;;;;5105502;28;19932;-60
2023/09/11 04:05:14;;;;;;;;;;;23.70;60.00;;;;;;5101344;28;19935;-60
2023/09/11 04:07:41;;;;;;;;;;;23.70;59.90;;;;;;5090978;28;19947;-59
2023/09/11 04:10:08;;;;;;;;;;;23.70;59.90;;;;;;5091161;28;19928;-60
2023/09/11 04:12:35;;;;;;;;;;;23.70;59.80;;;;;;5091244;28;19938;-60
2023/09/11 04:15:02;;;;;;;;;;;23.70;59.80;;;;;;5104686;28;19925;-59
2023/09/11 04:17:28;;;;;;;;;;;23.70;59.70;;;;;;5115615;27;19931;-63
2023/09/11 04:19:55;;;;;;;;;;;23.70;59.70;;;;;;5099193;28;19928;-59
2023/09/11 04:22:23;;;;;;;;;;;23.70;59.70;;;;;;5093995;28;19952;-60
2023/09/11 04:24:50;;;;;;;;;;;23.70;59.60;;;;;;5100675;27;19928;-61
2023/09/11 04:27:17;;;;;;;;;;;23.70;59.60;;;;;;5093368;28;19924;-61
2023/09/11 04:29:44;;;;;;;;;;;23.70;59.60;;;;;;5113346;27;20460;-59
2023/09/11 04:32:12;;;;;;;;;;;23.70;59.60;;;;;;5102749;28;19977;-61
2023/09/11 04:34:39;;;;;;;;;;;23.60;59.50;;;;;;5106130;28;19924;-60
2023/09/11 04:37:06;;;;;;;;;;;23.70;59.60;;;;;;5101671;28;19928;-62
2023/09/11 04:39:34;;;;;;;;;;;23.70;59.60;;;;;;5099388;28;19924;-61
2023/09/11 04:42:00;;;;;;;;;;;23.70;59.50;;;;;;5087920;28;19946;-60
2023/09/11 04:44:27;;;;;;;;;;;23.70;59.50;;;;;;5102339;28;19924;-60
2023/09/11 04:46:54;;;;;;;;;;;23.70;59.50;;;;;;5091232;28;19973;-59
2023/09/11 04:49:21;;;;;;;;;;;23.60;59.40;;;;;;5098912;28;19923;-61
2023/09/11 04:51:47;;;;;;;;;;;23.70;59.40;;;;;;5108687;27;19928;-59
2023/09/11 04:54:14;;;;;;;;;;;23.70;59.50;;;;;;5117996;27;19931;-60
2023/09/11 04:56:42;;;;;;;;;;;23.70;59.50;;;;;;5102770;28;19927;-59
2023/09/11 04:59:10;;;;;;;;;;;23.70;59.50;;;;;;5101271;28;19946;-60
2023/09/11 05:01:36;;;;;;;;;;;23.60;59.40;;;;;;5093564;27;19923;-61
2023/09/11 05:04:04;;;;;;;;;;;23.70;59.50;;;;;;5094632;28;19924;-60
2023/09/11 05:06:31;;;;;;;;;;;23.70;59.50;;;;;;5094403;28;19924;-60
2023/09/11 05:08:58;;;;;;;;;;;23.60;59.40;;;;;;5118935;27;19927;-59
2023/09/11 05:11:24;;;;;;;;;;;23.70;59.50;;;;;;5113467;27;19931;-60
2023/09/11 05:13:52;;;;;;;;;;;23.70;59.50;;;;;;5105961;28;19924;-60
2023/09/11 05:16:19;;;;;;;;;;;23.70;59.50;;;;;;5093449;28;19934;-60
2023/09/11 05:18:47;;;;;;;;;;;23.60;59.40;;;;;;5102999;28;19927;-60
2023/09/11 05:21:14;;;;;;;;;;;23.70;59.40;;;;;;5094516;28;20016;-59
2023/09/11 05:23:42;;;;;;;;;;;23.60;59.30;;;;;;5101671;28;19965;-61
2023/09/11 05:26:09;;;;;;;;;;;23.60;59.30;;;;;;5108115;27;19931;-59
2023/09/11 05:28:36;;;;;;;;;;;23.60;59.30;;;;;;5089523;28;19928;-59
2023/09/11 05:31:05;;;;;;;;;;;23.60;59.30;;;;;;5099065;28;19924;-61
2023/09/11 05:33:32;;;;;;;;;;;23.70;59.40;;;;;;5102677;28;19923;-62
2023/09/11 05:35:59;;;;;;;;;;;23.70;59.40;;;;;;5093584;28;19995;-61
2023/09/11 05:38:25;;;;;;;;;;;23.70;60.00;;;;;;5089863;28;19928;-62
2023/09/11 05:40:52;;;;;;;;;;;23.70;59.40;;;;;;5123055;28;19936;-59
2023/09/11 05:43:19;;;;;;;;;;;23.60;59.30;;;;;;5106829;28;19924;-60
2023/09/11 05:45:46;;;;;;;;;;;23.60;59.30;;;;;;5090623;28;19970;-61
2023/09/11 05:48:14;;;;;;;;;;;23.70;59.40;;;;;;5100712;28;19966;-60
2023/09/11 05:50:41;;;;;;;;;;;23.70;59.30;;;;;;5092739;28;20021;-61
2023/09/11 05:53:07;;;;;;;;;;;23.70;59.40;;;;;;5093270;28;19935;-64
2023/09/11 05:55:34;;;;;;;;;;;23.60;59.30;;;;;;5093540;28;19928;-61
2023/09/11 05:58:01;;;;;;;;;;;23.70;59.30;;;;;;5119274;27;19924;-62
2023/09/11 06:00:28;;;;;;;;;;;23.70;59.30;;;;;;5108391;28;19982;-62
2023/09/11 06:02:55;;;;;;;;;;;23.70;59.40;;;;;;5099508;28;19923;-63
2023/09/11 06:05:23;;;;;;;;;;;23.60;59.30;;;;;;5098975;28;19924;-62
2023/09/11 06:07:49;;;;;;;;;;;23.60;59.30;;;;;;5110050;28;19985;-62
2023/09/11 06:10:16;;;;;;;;;;;23.70;59.30;;;;;;5084909;28;19929;-61
2023/09/11 06:12:43;;;;;;;;;;;23.70;59.30;;;;;;5099006;28;19954;-62
2023/09/11 06:15:10;;;;;;;;;;;23.60;59.20;;;;;;5104132;28;19925;-60
2023/09/11 06:17:37;;;;;;;;;;;23.70;59.40;;;;;;5098015;28;19932;-61
2023/09/11 06:20:07;;;;;;;;;;;23.60;59.30;;;;;;5104461;28;19924;-62
2023/09/11 06:22:37;;;;;;;;;;;23.70;59.40;;;;;;5105335;28;19985;-61
2023/09/11 06:25:04;;;;;;;;;;;23.70;59.30;;;;;;5090970;28;19958;-62
2023/09/11 06:27:31;;;;;;;;;;;23.70;59.30;;;;;;5092585;28;20032;-61
2023/09/11 06:29:58;;;;;;;;;;;23.70;59.30;;;;;;5091414;28;19936;-61
2023/09/11 06:32:24;;;;;;;;;;;23.60;59.30;;;;;;5102035;28;19920;-62
2023/09/11 06:34:51;;;;;;;;;;;23.70;59.30;;;;;;5094184;28;19925;-60
2023/09/11 06:37:18;;;;;;;;;;;23.60;59.30;;;;;;5091453;28;19946;-61
2023/09/11 06:39:46;;;;;;;;;;;23.70;59.30;;;;;;5104728;28;19939;-61
2023/09/11 06:42:19;;;;;;;;;;;23.70;59.30;;;;;;5126198;27;19958;-61
2023/09/11 06:44:45;;;;;;;;;;;23.70;59.30;;;;;;5110116;28;19981;-60
2023/09/11 06:47:12;;;;;;;;;;;23.70;59.30;;;;;;5092979;28;19977;-60
2023/09/11 06:49:39;;;;;;;;;;;23.70;59.30;;;;;;5115835;27;19978;-62
2023/09/11 06:52:05;;;;;;;;;;;23.70;59.30;;;;;;5089707;28;20047;-60
2023/09/11 06:54:32;;;;;;;;;;;23.70;59.30;;;;;;5099416;28;20008;-60
2023/09/11 06:57:00;;;;;;;;;;;23.70;59.30;;;;;;5099868;28;19930;-61
2023/09/11 06:59:27;;;;;;;;;;;23.70;59.30;;;;;;5101339;28;19931;-62
2023/09/11 07:01:54;;;;;;;;;;;23.70;59.30;;;;;;5120872;27;19924;-61
2023/09/11 07:04:21;;;;;;;;;;;23.70;59.30;;;;;;5106643;28;19924;-61
2023/09/11 07:06:48;;;;;;;;;;;23.70;59.30;;;;;;5088222;28;19928;-61
2023/09/11 07:09:15;;;;;;;;;;;23.70;59.30;;;;;;5081117;28;19928;-61
2023/09/11 07:11:41;;;;;;;;;;;23.70;59.40;;;;;;5094670;28;20041;-61
2023/09/11 07:14:12;;;;;;;;;;;23.70;59.30;;;;;;5104338;28;19982;-64
2023/09/11 07:16:39;;;;;;;;;;;23.70;59.40;;;;;;5090600;28;19927;-61
2023/09/11 07:19:06;;;;;;;;;;;23.70;59.40;;;;;;5089975;28;19985;-62
2023/09/11 07:21:33;;;;;;;;;;;23.70;59.40;;;;;;5101790;28;20124;-60
2023/09/11 07:23:59;;;;;;;;;;;23.70;59.40;;;;;;5089742;28;19924;-64
2023/09/11 07:26:26;;;;;;;;;;;23.70;59.40;;;;;;5096439;28;19982;-63
2023/09/11 07:28:52;;;;;;;;;;;23.70;59.40;;;;;;5085498;28;19971;-60
2023/09/11 07:31:20;;;;;;;;;;;23.70;59.40;;;;;;5093143;28;19936;-60
2023/09/11 07:33:47;;;;;;;;;;;23.70;59.40;;;;;;5092175;27;19931;-60
2023/09/11 07:36:14;;;;;;;;;;;23.70;59.40;;;;;;5081680;28;19923;-60
2023/09/11 07:38:44;;;;;;;;;;;23.70;59.50;;;;;;5083840;28;19974;-61
2023/09/11 07:41:11;;;;;;;;;;;23.70;59.40;;;;;;5079378;28;19924;-62
2023/09/11 07:43:37;;;;;;;;;;;23.70;59.50;;;;;;5075885;28;19940;-62
2023/09/11 07:46:04;;;;;;;;;;;23.70;59.50;;;;;;5081010;28;19973;-61
2023/09/11 07:48:35;;;;;;;;;;;23.70;59.50;;;;;;5082899;28;19947;-62
2023/09/11 07:51:01;;;;;;;;;;;23.70;59.50;;;;;;5085131;28;19936;-61
2023/09/11 07:53:28;;;;;;;;;;;23.70;59.50;;;;;;5087862;28;19932;-60
2023/09/11 07:55:55;;;;;;;;;;;23.70;59.50;;;;;;5084638;28;19924;-60
2023/09/11 07:58:22;;;;;;;;;;;23.70;59.50;;;;;;5082576;28;19924;-63
2023/09/11 08:00:49;;;;;;;;;;;23.70;59.50;;;;;;5105618;27;19924;-61
2023/09/11 08:03:16;;;;;;;;;;;23.80;59.60;;;;;;5099079;28;19928;-61
2023/09/11 08:05:44;;;;;;;;;;;23.70;59.60;;;;;;5088677;28;19931;-63
2023/09/11 08:08:11;;;;;;;;;;;23.70;59.60;;;;;;5089158;28;19924;-62
2023/09/11 08:10:38;;;;;;;;;;;23.80;59.70;;;;;;5085649;28;20141;-61
2023/09/11 08:13:05;;;;;;;;;;;23.80;59.70;;;;;;5098911;28;19936;-61
2023/09/11 08:15:31;;;;;;;;;;;23.80;59.70;;;;;;5084347;28;19932;-62
2023/09/11 08:17:58;;;;;;;;;;;23.80;59.70;;;;;;5084107;28;19931;-61
2023/09/11 08:20:25;;;;;;;;;;;23.80;59.70;;;;;;5082031;28;19943;-62
2023/09/11 08:22:53;;;;;;;;;;;23.80;59.80;;;;;;5084884;28;19932;-63
2023/09/11 08:25:20;;;;;;;;;;;23.80;59.80;;;;;;5089488;28;20456;-61
2023/09/11 08:27:47;;;;;;;;;;;23.80;59.80;;;;;;5089104;28;19931;-60
2023/09/11 08:30:13;;;;;;;;;;;23.80;59.90;;;;;;5091012;28;19932;-60
2023/09/11 08:32:40;;;;;;;;;;;23.80;59.90;;;;;;5088683;28;19934;-60
2023/09/11 08:35:07;;;;;;;;;;;23.80;59.90;;;;;;5091885;28;20070;-62
2023/09/11 08:37:34;;;;;;;;;;;23.80;59.90;;;;;;5087902;28;19935;-63
2023/09/11 08:40:03;;;;;;;;;;;23.80;59.90;;;;;;5089389;28;19931;-61
2023/09/11 08:42:30;;;;;;;;;;;23.80;60.00;;;;;;5100212;28;19924;-61
2023/09/11 08:44:57;;;;;;;;;;;23.80;60.00;;;;;;5110675;27;20059;-61
2023/09/11 08:47:26;;;;;;;;;;;23.80;60.10;;;;;;5117427;27;19935;-61
2023/09/11 08:49:55;;;;;;;;;;;23.80;60.10;;;;;;5100331;28;19972;-61
2023/09/11 08:52:22;;;;;;;;;;;23.80;60.10;;;;;;5090779;28;19924;-61
2023/09/11 08:54:50;;;;;;;;;;;23.80;60.10;;;;;;5087457;28;19934;-61
2023/09/11 08:57:21;;;;;;;;;;;23.80;60.10;;;;;;5106665;27;19924;-61
2023/09/11 08:59:48;;;;;;;;;;;23.80;60.10;;;;;;5094865;28;19934;-61
2023/09/11 09:02:15;;;;;;;;;;;23.80;60.20;;;;;;5087394;28;19940;-62
2023/09/11 09:04:41;;;;;;;;;;;23.80;60.20;;;;;;5087818;28;19985;-63
2023/09/11 09:07:08;;;;;;;;;;;23.80;60.20;;;;;;5089280;28;19928;-61
2023/09/11 09:09:35;;;;;;;;;;;23.80;60.20;;;;;;5090334;28;19924;-62
2023/09/11 09:12:20;;;;;;;;;;;23.80;60.30;;;;;;5088347;28;19928;-61
2023/09/11 09:14:49;;;;;;;;;;;23.80;60.30;;;;;;5085488;28;19947;-60
2023/09/11 09:17:16;;;;;;;;;;;23.80;60.30;;;;;;5102117;28;19924;-60
2023/09/11 09:19:42;;;;;;;;;;;23.80;60.20;;;;;;5097065;28;19924;-61
2023/09/11 09:22:10;;;;;;;;;;;23.80;60.20;;;;;;5090294;28;19931;-60
2023/09/11 09:24:37;;;;;;;;;;;23.80;60.20;;;;;;5091577;28;19928;-63
2023/09/11 09:27:05;;;;;;;;;;;23.80;60.10;;;;;;5077040;28;19924;-61
2023/09/11 09:29:34;;;;;;;;;;;23.90;60.30;;;;;;5092050;28;19928;-63
2023/09/11 09:32:02;;;;;;;;;;;23.90;60.30;;;;;;5095794;28;19928;-60
2023/09/11 09:34:29;;;;;;;;;;;23.90;60.30;;;;;;5100123;28;19928;-61
2023/09/11 09:36:56;;;;;;;;;;;23.90;60.30;;;;;;5089690;28;19924;-61
2023/09/11 09:39:24;;;;;;;;;;;23.90;60.40;;;;;;5095543;28;19935;-62
2023/09/11 09:41:54;;;;;;;;;;;23.90;60.30;;;;;;5086403;28;19924;-61
2023/09/11 09:44:30;;;;;;;;;;;23.90;60.40;;;;;;5091411;28;19928;-61
2023/09/11 09:46:56;;;;;;;;;;;23.90;60.40;;;;;;5095214;28;19939;-61
2023/09/11 09:49:25;;;;;;;;;;;23.90;60.40;;;;;;5086546;28;19969;-62
2023/09/11 09:51:53;;;;;;;;;;;23.90;60.40;;;;;;5087350;28;20348;-60
2023/09/11 09:54:19;;;;;;;;;;;24.00;60.50;;;;;;5087306;28;19932;-62
2023/09/11 09:56:47;;;;;;;;;;;24.00;60.60;;;;;;5097506;28;19920;-61
2023/09/11 09:59:14;;;;;;;;;;;24.00;60.60;;;;;;5086933;28;19924;-61
2023/09/11 10:01:44;;;;;;;;;;;24.00;60.70;;;;;;5102507;28;19951;-62
2023/09/11 10:04:14;;;;;;;;;;;24.00;60.70;;;;;;5101900;28;19928;-61
2023/09/11 10:06:42;;;;;;;;;;;24.00;60.70;;;;;;5089795;28;19924;-62
2023/09/11 10:09:09;;;;;;;;;;;24.00;60.80;;;;;;5101639;28;19946;-61
2023/09/11 10:11:36;;;;;;;;;;;24.00;60.90;;;;;;5091304;28;19934;-61
2023/09/11 10:14:03;;;;;;;;;;;24.00;60.90;;;;;;5088977;28;19925;-61
2023/09/11 10:16:30;;;;;;;;;;;24.00;60.90;;;;;;5094717;28;19923;-62
2023/09/11 10:18:57;;;;;;;;;;;24.00;61.00;;;;;;5093351;28;19925;-61
2023/09/11 10:21:25;;;;;;;;;;;24.10;61.10;;;;;;5101969;28;20262;-61
2023/09/11 10:23:53;;;;;;;;;;;24.10;61.10;;;;;;5098829;28;19932;-61
2023/09/11 10:26:22;;;;;;;;;;;24.00;61.00;;;;;;5089863;28;19932;-64
2023/09/11 10:28:49;;;;;;;;;;;24.10;61.20;;;;;;5111427;28;19924;-61
2023/09/11 10:31:16;;;;;;;;;;;24.10;61.30;;;;;;5090021;28;19924;-62
2023/09/11 10:33:43;;;;;;;;;;;24.10;61.20;;;;;;5099002;28;19954;-61
2023/09/11 10:36:11;;;;;;;;;;;24.10;61.30;;;;;;5096525;28;19978;-60
2023/09/11 10:38:38;;;;;;;;;;;24.10;61.30;;;;;;5104681;28;20270;-60
2023/09/11 10:41:06;;;;;;;;;;;24.10;61.30;;;;;;5103946;27;19923;-60
2023/09/11 10:43:33;;;;;;;;;;;24.10;61.40;;;;;;5105457;28;19924;-61
2023/09/11 10:46:09;;;;;;;;;;;24.10;61.30;;;;;;5090946;28;19977;-60
2023/09/11 10:48:36;;;;;;;;;;;24.10;61.40;;;;;;5096377;28;19923;-61
2023/09/11 10:51:03;;;;;;;;;;;24.10;61.40;;;;;;5094937;28;19946;-60
2023/09/11 10:53:30;;;;;;;;;;;24.10;61.40;;;;;;5091091;28;19978;-62
2023/09/11 10:55:57;;;;;;;;;;;24.10;61.40;;;;;;5091980;28;19935;-62
2023/09/11 10:58:26;;;;;;;;;;;24.10;61.40;;;;;;5104699;27;20007;-61
2023/09/11 11:00:53;;;;;;;;;;;24.10;61.40;;;;;;5103528;28;19924;-62
2023/09/11 11:03:20;;;;;;;;;;;24.10;61.40;;;;;;5102843;28;19976;-61
2023/09/11 11:05:47;;;;;;;;;;;24.20;62.30;;;;;;5089088;28;19928;-62
2023/09/11 11:08:13;;;;;;;;;;;24.10;61.60;;;;;;5085290;28;19928;-60
2023/09/11 11:10:41;;;;;;;;;;;24.20;61.70;;;;;;5097118;28;19933;-61
2023/09/11 11:13:08;;;;;;;;;;;24.20;61.80;;;;;;5084229;28;19924;-61
2023/09/11 11:15:36;;;;;;;;;;;24.20;61.80;;;;;;5085310;28;19963;-63
2023/09/11 11:18:07;;;;;;;;;;;24.20;61.90;;;;;;5086671;28;19924;-61
2023/09/11 11:20:34;;;;;;;;;;;24.20;61.90;;;;;;5116936;27;19923;-61
2023/09/11 11:23:07;;;;;;;;;;;24.20;62.10;;;;;;5090662;28;19928;-63
2023/09/11 11:25:34;;;;;;;;;;;24.30;62.20;;;;;;5086970;28;19929;-62
2023/09/11 11:28:02;;;;;;;;;;;24.30;62.20;;;;;;5107476;27;19924;-61
2023/09/11 11:30:29;;;;;;;;;;;24.20;62.10;;;;;;5088493;28;19935;-61
2023/09/11 11:32:57;;;;;;;;;;;24.20;62.10;;;;;;5094288;28;19924;-61
2023/09/11 11:35:23;;;;;;;;;;;24.30;62.30;;;;;;5073789;28;20063;-61
2023/09/11 11:37:52;;;;;;;;;;;24.30;62.30;;;;;;5088514;28;19924;-61
2023/09/11 11:40:19;;;;;;;;;;;24.30;62.30;;;;;;5100581;28;19935;-61
2023/09/11 11:42:46;;;;;;;;;;;24.30;63.20;;;;;;5104052;27;20293;-60
2023/09/11 11:45:13;;;;;;;;;;;24.30;62.30;;;;;;5105374;28;19925;-60
2023/09/11 11:47:40;;;;;;;;;;;24.30;62.40;;;;;;5096565;28;19954;-61
2023/09/11 11:50:09;;;;;;;;;;;24.30;62.30;;;;;;5101864;28;20183;-62
2023/09/11 11:52:36;;;;;;;;;;;24.30;62.30;;;;;;5118718;27;19928;-63
2023/09/11 11:55:03;;;;;;;;;;;24.30;62.30;;;;;;5102521;28;19984;-62
2023/09/11 11:57:31;;;;;;;;;;;24.30;62.30;;;;;;5091511;28;19953;-61
2023/09/11 11:59:58;;;;;;;;;;;24.30;62.30;;;;;;5114295;27;19949;-61
2023/09/11 12:02:25;;;;;;;;;;;24.30;62.30;;;;;;5115647;27;19949;-61
2023/09/11 12:04:53;;;;;;;;;;;24.30;62.30;;;;;;5078418;28;20331;-62
2023/09/11 12:07:23;;;;;;;;;;;24.30;62.30;;;;;;5114232;27;20393;-61
2023/09/11 12:09:50;;;;;;;;;;;24.30;62.40;;;;;;5100798;28;19927;-61
2023/09/11 12:12:16;;;;;;;;;;;24.40;62.50;;;;;;5116106;27;19946;-61
2023/09/11 12:14:43;;;;;;;;;;;24.40;62.50;;;;;;5092338;28;19927;-62
2023/09/11 12:17:10;;;;;;;;;;;24.40;62.50;;;;;;5098875;28;19928;-60
2023/09/11 12:19:37;;;;;;;;;;;24.30;62.40;;;;;;5089590;28;19924;-61
2023/09/11 12:22:04;;;;;;;;;;;24.40;62.50;;;;;;5098048;28;19931;-62
2023/09/11 12:24:32;;;;;;;;;;;24.40;62.50;;;;;;5094569;28;19923;-61
2023/09/11 12:26:59;;;;;;;;;;;24.40;62.50;;;;;;5082791;28;19935;-60
2023/09/11 12:29:27;;;;;;;;;;;24.40;62.50;;;;;;5092720;28;19931;-63
2023/09/11 12:31:54;;;;;;;;;;;24.40;62.50;;;;;;5114857;27;19931;-61
2023/09/11 12:34:20;;;;;;;;;;;24.40;62.50;;;;;;5104467;28;20371;-61
2023/09/11 12:36:47;;;;;;;;;;;24.40;62.50;;;;;;5099058;28;19931;-62
2023/09/11 12:39:14;;;;;;;;;;;24.40;62.50;;;;;;5094127;28;19924;-61
2023/09/11 12:41:42;;;;;;;;;;;24.40;62.50;;;;;;5077827;28;19928;-61
2023/09/11 12:44:09;;;;;;;;;;;24.40;62.50;;;;;;5082309;28;19946;-61
2023/09/11 12:46:34;;;;;;;;;;;24.50;62.60;;;;;;5088680;28;19936;-61
2023/09/11 12:49:01;;;;;;;;;;;24.40;62.30;;;;;;5089965;28;19988;-60
2023/09/11 12:51:28;;;;;;;;;;;24.40;62.30;;;;;;5105971;27;19927;-61
2023/09/11 12:53:55;;;;;;;;;;;24.50;62.40;;;;;;5104892;28;19950;-60
2023/09/11 12:56:22;;;;;;;;;;;24.40;62.30;;;;;;5091710;28;19969;-61
2023/09/11 12:58:50;;;;;;;;;;;24.40;62.20;;;;;;5094746;28;19924;-61
2023/09/11 13:01:17;;;;;;;;;;;24.50;62.20;;;;;;5088230;28;19924;-60
2023/09/11 13:03:46;;;;;;;;;;;24.50;62.20;;;;;;5082279;28;19935;-61
2023/09/11 13:06:13;;;;;;;;;;;24.50;62.10;;;;;;5090303;28;19932;-61
2023/09/11 13:08:40;;;;;;;;;;;24.50;62.00;;;;;;5090135;28;19930;-61
2023/09/11 13:11:07;;;;;;;;;;;24.50;61.90;;;;;;5094163;28;19932;-60
2023/09/11 13:13:34;;;;;;;;;;;24.50;61.80;;;;;;5087936;28;19928;-64
2023/09/11 13:16:03;;;;;;;;;;;24.50;61.70;;;;;;5096759;28;19925;-61
2023/09/11 13:18:29;;;;;;;;;;;24.50;61.70;;;;;;5085022;28;19924;-61
2023/09/11 13:20:56;;;;;;;;;;;24.50;61.60;;;;;;5090128;28;19932;-63
2023/09/11 13:23:23;;;;;;;;;;;24.50;61.40;;;;;;5088414;28;19936;-61
2023/09/11 13:25:50;;;;;;;;;;;24.50;61.40;;;;;;5089989;28;19925;-61
2023/09/11 13:28:17;;;;;;;;;;;24.50;61.30;;;;;;5098447;28;19924;-62
2023/09/11 13:30:44;;;;;;;;;;;24.50;61.20;;;;;;5087580;28;19935;-62
2023/09/11 13:33:12;;;;;;;;;;;24.50;61.10;;;;;;5101959;28;19928;-61
2023/09/11 13:35:38;;;;;;;;;;;24.50;61.10;;;;;;5090136;28;19992;-61
2023/09/11 13:38:05;;;;;;;;;;;24.50;61.10;;;;;;5095446;28;19924;-61
2023/09/11 13:40:33;;;;;;;;;;;24.50;61.10;;;;;;5088160;28;19924;-62
2023/09/11 13:43:00;;;;;;;;;;;24.50;61.10;;;;;;5106856;28;19931;-62
2023/09/11 13:45:27;;;;;;;;;;;24.50;61.00;;;;;;5093684;28;19946;-61
2023/09/11 13:47:53;;;;;;;;;;;24.50;61.00;;;;;;5096521;28;19928;-61
2023/09/11 13:50:22;;;;;;;;;;;24.50;61.00;;;;;;5080380;28;19933;-61
2023/09/11 13:52:48;;;;;;;;;;;24.50;61.00;;;;;;5083360;28;19931;-62
2023/09/11 13:55:15;;;;;;;;;;;24.50;61.00;;;;;;5113818;28;19934;-60
2023/09/11 13:57:42;;;;;;;;;;;24.50;60.80;;;;;;5094763;28;19931;-60
2023/09/11 14:00:09;;;;;;;;;;;24.60;60.90;;;;;;5097943;28;19945;-61
2023/09/11 14:02:36;;;;;;;;;;;24.60;60.80;;;;;;5096809;28;19924;-61
2023/09/11 14:05:03;;;;;;;;;;;24.50;60.60;;;;;;5098469;28;19931;-61
2023/09/11 14:07:31;;;;;;;;;;;24.50;60.60;;;;;;5084602;28;19952;-61
2023/09/11 14:09:58;;;;;;;;;;;24.60;60.70;;;;;;5092207;28;19924;-60
2023/09/11 14:12:25;;;;;;;;;;;24.50;60.50;;;;;;5099000;28;19928;-61
2023/09/11 14:14:51;;;;;;;;;;;24.60;60.60;;;;;;5099644;28;19924;-62
2023/09/11 14:17:18;;;;;;;;;;;24.60;60.60;;;;;;5086811;28;19931;-60